sensor_id;sensor_type;location;lat;lon;timestamp;temperature;humidity
39695;DHT22;25367;-35.352;149.036;2023-02-19T00:01:58;26.50;46.60
39695;DHT22;25367;-35.352;149.036;2023-02-19T00:04:28;26.60;46.50
39695;DHT22;25367;-35.352;149.036;2023-02-19T00:06:59;26.60;46.50
39695;DHT22;25367;-35.352;149.036;2023-02-19T00:09:30;26.70;46.40
39695;DHT22;25367;-35.352;149.036;2023-02-19T00:12:02;26.70;46.30
39695;DHT22;25367;-35.352;149.036;2023-02-19T00:14:33;26.80;46.30
39695;DHT22;25367;-35.352;149.036;2023-02-19T00:17:03;26.70;46.20
39695;DHT22;25367;-35.352;149.036;2023-02-19T00:19:33;26.80;46.20
39695;DHT22;25367;-35.352;149.036;2023-02-19T00:22:03;26.90;46.30
39695;DHT22;25367;-35.352;149.036;2023-02-19T00:24:33;26.90;46.20
39695;DHT22;25367;-35.352;149.036;2023-02-19T00:27:06;26.90;46.20
39695;DHT22;25367;-35.352;149.036;2023-02-19T00:29:37;26.90;46.20
39695;DHT22;25367;-35.352;149.036;2023-02-19T00:32:07;27.00;46.20
39695;DHT22;25367;-35.352;149.036;2023-02-19T00:34:37;27.00;46.10
39695;DHT22;25367;-35.352;149.036;2023-02-19T00:37:07;27.00;46.30
39695;DHT22;25367;-35.352;149.036;2023-02-19T00:39:37;27.00;46.30
39695;DHT22;25367;-35.352;149.036;2023-02-19T00:42:10;27.00;46.30
39695;DHT22;25367;-35.352;149.036;2023-02-19T00:44:41;27.00;46.30
39695;DHT22;25367;-35.352;149.036;2023-02-19T00:47:11;27.00;46.30
39695;DHT22;25367;-35.352;149.036;2023-02-19T00:49:42;27.00;46.30
39695;DHT22;25367;-35.352;149.036;2023-02-19T00:52:13;27.00;46.40
39695;DHT22;25367;-35.352;149.036;2023-02-19T00:54:43;27.00;46.40
39695;DHT22;25367;-35.352;149.036;2023-02-19T00:57:16;27.00;47.00
39695;DHT22;25367;-35.352;149.036;2023-02-19T00:59:47;27.00;46.50
39695;DHT22;25367;-35.352;149.036;2023-02-19T01:02:17;27.00;46.50
39695;DHT22;25367;-35.352;149.036;2023-02-19T01:04:47;27.00;46.50
39695;DHT22;25367;-35.352;149.036;2023-02-19T01:07:19;27.00;46.60
39695;DHT22;25367;-35.352;149.036;2023-02-19T01:09:49;27.00;47.20
39695;DHT22;25367;-35.352;149.036;2023-02-19T01:12:21;27.00;46.60
39695;DHT22;25367;-35.352;149.036;2023-02-19T01:14:52;27.10;46.70
39695;DHT22;25367;-35.352;149.036;2023-02-19T01:17:23;27.10;46.80
39695;DHT22;25367;-35.352;149.036;2023-02-19T01:19:54;27.10;46.90
39695;DHT22;25367;-35.352;149.036;2023-02-19T01:22:24;27.10;47.00
39695;DHT22;25367;-35.352;149.036;2023-02-19T01:24:55;27.10;47.00
39695;DHT22;25367;-35.352;149.036;2023-02-19T01:27:28;27.10;47.10
39695;DHT22;25367;-35.352;149.036;2023-02-19T01:29:58;27.20;47.10
39695;DHT22;25367;-35.352;149.036;2023-02-19T01:32:28;27.20;47.20
39695;DHT22;25367;-35.352;149.036;2023-02-19T01:34:59;27.20;47.30
39695;DHT22;25367;-35.352;149.036;2023-02-19T01:37:29;27.20;47.30
39695;DHT22;25367;-35.352;149.036;2023-02-19T01:39:59;27.20;47.30
39695;DHT22;25367;-35.352;149.036;2023-02-19T01:42:31;27.20;47.30
39695;DHT22;25367;-35.352;149.036;2023-02-19T01:45:26;27.30;47.40
39695;DHT22;25367;-35.352;149.036;2023-02-19T01:48:03;27.30;47.20
39695;DHT22;25367;-35.352;149.036;2023-02-19T01:50:39;27.30;47.50
39695;DHT22;25367;-35.352;149.036;2023-02-19T01:53:13;27.30;47.50
39695;DHT22;25367;-35.352;149.036;2023-02-19T01:55:45;27.30;47.60
39695;DHT22;25367;-35.352;149.036;2023-02-19T01:58:20;27.40;47.70
39695;DHT22;25367;-35.352;149.036;2023-02-19T02:00:50;27.50;47.70
39695;DHT22;25367;-35.352;149.036;2023-02-19T02:03:21;27.50;47.80
39695;DHT22;25367;-35.352;149.036;2023-02-19T02:05:56;27.60;47.90
39695;DHT22;25367;-35.352;149.036;2023-02-19T02:08:29;27.70;47.80
39695;DHT22;25367;-35.352;149.036;2023-02-19T02:11:00;27.70;47.80
39695;DHT22;25367;-35.352;149.036;2023-02-19T02:13:34;27.80;47.80
39695;DHT22;25367;-35.352;149.036;2023-02-19T02:16:16;27.80;47.60
39695;DHT22;25367;-35.352;149.036;2023-02-19T02:18:58;27.90;47.60
39695;DHT22;25367;-35.352;149.036;2023-02-19T02:21:56;27.90;47.60
39695;DHT22;25367;-35.352;149.036;2023-02-19T02:27:42;28.00;47.40
39695;DHT22;25367;-35.352;149.036;2023-02-19T02:30:23;28.00;47.50
39695;DHT22;25367;-35.352;149.036;2023-02-19T02:32:59;28.00;47.40
39695;DHT22;25367;-35.352;149.036;2023-02-19T02:35:36;27.90;47.60
39695;DHT22;25367;-35.352;149.036;2023-02-19T02:38:10;28.00;47.60
39695;DHT22;25367;-35.352;149.036;2023-02-19T02:40:41;28.10;47.60
39695;DHT22;25367;-35.352;149.036;2023-02-19T02:43:13;28.00;47.40
39695;DHT22;25367;-35.352;149.036;2023-02-19T02:45:47;28.00;47.70
39695;DHT22;25367;-35.352;149.036;2023-02-19T02:48:29;28.10;47.60
39695;DHT22;25367;-35.352;149.036;2023-02-19T02:51:07;28.10;47.60
39695;DHT22;25367;-35.352;149.036;2023-02-19T02:53:47;28.10;47.50
39695;DHT22;25367;-35.352;149.036;2023-02-19T02:56:19;28.10;47.60
39695;DHT22;25367;-35.352;149.036;2023-02-19T02:58:50;28.10;47.60
39695;DHT22;25367;-35.352;149.036;2023-02-19T03:01:27;28.20;47.60
39695;DHT22;25367;-35.352;149.036;2023-02-19T03:04:03;28.20;47.60
39695;DHT22;25367;-35.352;149.036;2023-02-19T03:06:35;28.20;47.60
39695;DHT22;25367;-35.352;149.036;2023-02-19T03:09:10;28.20;47.60
39695;DHT22;25367;-35.352;149.036;2023-02-19T03:11:43;28.20;47.60
39695;DHT22;25367;-35.352;149.036;2023-02-19T03:14:17;28.20;47.60
39695;DHT22;25367;-35.352;149.036;2023-02-19T03:16:57;28.20;47.60
39695;DHT22;25367;-35.352;149.036;2023-02-19T03:19:30;28.20;47.60
39695;DHT22;25367;-35.352;149.036;2023-02-19T03:22:07;28.20;47.60
39695;DHT22;25367;-35.352;149.036;2023-02-19T03:24:42;28.30;47.70
39695;DHT22;25367;-35.352;149.036;2023-02-19T03:27:14;28.30;47.70
39695;DHT22;25367;-35.352;149.036;2023-02-19T03:29:50;28.30;47.60
39695;DHT22;25367;-35.352;149.036;2023-02-19T03:32:26;28.30;47.60
39695;DHT22;25367;-35.352;149.036;2023-02-19T03:35:00;28.30;47.70
39695;DHT22;25367;-35.352;149.036;2023-02-19T03:37:39;28.30;47.60
39695;DHT22;25367;-35.352;149.036;2023-02-19T03:40:11;28.40;47.70
39695;DHT22;25367;-35.352;149.036;2023-02-19T03:42:48;28.40;47.70
39695;DHT22;25367;-35.352;149.036;2023-02-19T03:45:35;28.40;47.70
39695;DHT22;25367;-35.352;149.036;2023-02-19T03:48:28;28.50;47.70
39695;DHT22;25367;-35.352;149.036;2023-02-19T03:51:08;28.40;47.70
39695;DHT22;25367;-35.352;149.036;2023-02-19T03:53:52;28.40;47.70
39695;DHT22;25367;-35.352;149.036;2023-02-19T03:56:24;28.50;47.70
39695;DHT22;25367;-35.352;149.036;2023-02-19T03:58:59;28.40;47.70
39695;DHT22;25367;-35.352;149.036;2023-02-19T04:01:30;28.40;48.00
39695;DHT22;25367;-35.352;149.036;2023-02-19T04:04:06;28.40;47.80
39695;DHT22;25367;-35.352;149.036;2023-02-19T04:06:39;28.40;48.00
39695;DHT22;25367;-35.352;149.036;2023-02-19T04:09:11;28.40;47.90
39695;DHT22;25367;-35.352;149.036;2023-02-19T04:11:45;28.50;47.80
39695;DHT22;25367;-35.352;149.036;2023-02-19T04:14:19;28.50;47.80
39695;DHT22;25367;-35.352;149.036;2023-02-19T04:16:52;28.60;47.80
39695;DHT22;25367;-35.352;149.036;2023-02-19T04:19:26;28.60;47.80
39695;DHT22;25367;-35.352;149.036;2023-02-19T04:21:57;28.60;47.80
39695;DHT22;25367;-35.352;149.036;2023-02-19T04:24:30;28.60;47.80
39695;DHT22;25367;-35.352;149.036;2023-02-19T04:27:02;28.70;47.80
39695;DHT22;25367;-35.352;149.036;2023-02-19T04:29:33;28.70;47.90
39695;DHT22;25367;-35.352;149.036;2023-02-19T04:32:02;28.70;47.90
39695;DHT22;25367;-35.352;149.036;2023-02-19T04:34:33;28.70;47.90
39695;DHT22;25367;-35.352;149.036;2023-02-19T04:37:03;28.70;47.90
39695;DHT22;25367;-35.352;149.036;2023-02-19T04:39:32;28.70;47.90
39695;DHT22;25367;-35.352;149.036;2023-02-19T04:42:01;28.70;47.90
39695;DHT22;25367;-35.352;149.036;2023-02-19T04:44:32;28.80;47.90
39695;DHT22;25367;-35.352;149.036;2023-02-19T04:47:02;28.80;47.90
39695;DHT22;25367;-35.352;149.036;2023-02-19T04:49:34;28.80;47.90
39695;DHT22;25367;-35.352;149.036;2023-02-19T04:52:03;28.80;47.90
39695;DHT22;25367;-35.352;149.036;2023-02-19T04:54:32;28.70;47.80
39695;DHT22;25367;-35.352;149.036;2023-02-19T04:57:02;28.80;48.20
39695;DHT22;25367;-35.352;149.036;2023-02-19T04:59:32;28.80;48.10
39695;DHT22;25367;-35.352;149.036;2023-02-19T05:02:01;28.80;48.00
39695;DHT22;25367;-35.352;149.036;2023-02-19T05:04:34;28.80;48.00
39695;DHT22;25367;-35.352;149.036;2023-02-19T05:07:04;28.80;48.00
39695;DHT22;25367;-35.352;149.036;2023-02-19T05:09:33;28.80;48.00
39695;DHT22;25367;-35.352;149.036;2023-02-19T05:12:05;28.90;48.00
39695;DHT22;25367;-35.352;149.036;2023-02-19T05:14:35;28.90;48.10
39695;DHT22;25367;-35.352;149.036;2023-02-19T05:17:04;28.90;48.10
39695;DHT22;25367;-35.352;149.036;2023-02-19T05:19:37;28.90;48.10
39695;DHT22;25367;-35.352;149.036;2023-02-19T05:22:06;29.00;48.10
39695;DHT22;25367;-35.352;149.036;2023-02-19T05:24:36;28.90;48.10
39695;DHT22;25367;-35.352;149.036;2023-02-19T05:27:06;28.90;48.10
39695;DHT22;25367;-35.352;149.036;2023-02-19T05:29:35;28.90;48.10
39695;DHT22;25367;-35.352;149.036;2023-02-19T05:32:04;29.00;48.20
39695;DHT22;25367;-35.352;149.036;2023-02-19T05:34:37;28.90;48.20
39695;DHT22;25367;-35.352;149.036;2023-02-19T05:37:06;29.00;48.30
39695;DHT22;25367;-35.352;149.036;2023-02-19T05:39:36;29.00;48.40
39695;DHT22;25367;-35.352;149.036;2023-02-19T05:42:06;29.00;48.30
39695;DHT22;25367;-35.352;149.036;2023-02-19T05:44:35;29.00;48.30
39695;DHT22;25367;-35.352;149.036;2023-02-19T05:47:05;29.00;48.30
39695;DHT22;25367;-35.352;149.036;2023-02-19T05:49:36;29.00;48.40
39695;DHT22;25367;-35.352;149.036;2023-02-19T05:52:06;29.00;48.40
39695;DHT22;25367;-35.352;149.036;2023-02-19T05:54:36;29.00;48.40
39695;DHT22;25367;-35.352;149.036;2023-02-19T05:57:06;29.10;48.50
39695;DHT22;25367;-35.352;149.036;2023-02-19T05:59:35;29.00;48.40
39695;DHT22;25367;-35.352;149.036;2023-02-19T06:02:04;29.10;48.50
39695;DHT22;25367;-35.352;149.036;2023-02-19T06:04:35;29.10;48.50
39695;DHT22;25367;-35.352;149.036;2023-02-19T06:07:05;29.10;48.60
39695;DHT22;25367;-35.352;149.036;2023-02-19T06:09:35;29.10;48.70
39695;DHT22;25367;-35.352;149.036;2023-02-19T06:12:04;29.20;48.50
39695;DHT22;25367;-35.352;149.036;2023-02-19T06:14:34;29.10;48.00
39695;DHT22;25367;-35.352;149.036;2023-02-19T06:17:03;29.10;47.00
39695;DHT22;25367;-35.352;149.036;2023-02-19T06:19:33;29.00;45.70
39695;DHT22;25367;-35.352;149.036;2023-02-19T06:22:04;28.90;45.00
39695;DHT22;25367;-35.352;149.036;2023-02-19T06:24:34;28.80;44.30
39695;DHT22;25367;-35.352;149.036;2023-02-19T06:27:06;28.70;43.90
39695;DHT22;25367;-35.352;149.036;2023-02-19T06:29:35;28.60;43.50
39695;DHT22;25367;-35.352;149.036;2023-02-19T06:32:05;28.50;43.10
39695;DHT22;25367;-35.352;149.036;2023-02-19T06:34:35;28.30;43.70
39695;DHT22;25367;-35.352;149.036;2023-02-19T06:37:07;28.30;44.20
39695;DHT22;25367;-35.352;149.036;2023-02-19T06:39:37;28.40;44.80
39695;DHT22;25367;-35.352;149.036;2023-02-19T06:42:06;28.30;45.00
39695;DHT22;25367;-35.352;149.036;2023-02-19T06:44:35;28.30;45.00
39695;DHT22;25367;-35.352;149.036;2023-02-19T06:47:05;28.40;45.30
39695;DHT22;25367;-35.352;149.036;2023-02-19T06:49:34;28.40;45.50
39695;DHT22;25367;-35.352;149.036;2023-02-19T06:52:06;28.40;45.60
39695;DHT22;25367;-35.352;149.036;2023-02-19T06:54:35;28.40;45.70
39695;DHT22;25367;-35.352;149.036;2023-02-19T06:57:05;28.50;45.80
39695;DHT22;25367;-35.352;149.036;2023-02-19T06:59:35;28.50;45.80
39695;DHT22;25367;-35.352;149.036;2023-02-19T07:02:04;28.50;45.90
39695;DHT22;25367;-35.352;149.036;2023-02-19T07:04:33;28.60;46.00
39695;DHT22;25367;-35.352;149.036;2023-02-19T07:07:03;28.60;46.10
39695;DHT22;25367;-35.352;149.036;2023-02-19T07:09:34;28.60;46.10
39695;DHT22;25367;-35.352;149.036;2023-02-19T07:12:04;28.60;46.20
39695;DHT22;25367;-35.352;149.036;2023-02-19T07:14:34;28.60;46.30
39695;DHT22;25367;-35.352;149.036;2023-02-19T07:17:04;28.70;46.40
39695;DHT22;25367;-35.352;149.036;2023-02-19T07:19:33;28.70;46.40
39695;DHT22;25367;-35.352;149.036;2023-02-19T07:22:02;28.70;46.50
39695;DHT22;25367;-35.352;149.036;2023-02-19T07:24:34;28.70;46.50
39695;DHT22;25367;-35.352;149.036;2023-02-19T07:27:03;28.70;46.50
39695;DHT22;25367;-35.352;149.036;2023-02-19T07:29:32;28.80;47.20
39695;DHT22;25367;-35.352;149.036;2023-02-19T07:32:02;28.80;46.70
39695;DHT22;25367;-35.352;149.036;2023-02-19T07:34:31;28.80;46.80
39695;DHT22;25367;-35.352;149.036;2023-02-19T07:37:01;28.80;46.80
39695;DHT22;25367;-35.352;149.036;2023-02-19T07:39:30;28.80;46.80
39695;DHT22;25367;-35.352;149.036;2023-02-19T07:42:02;28.80;46.80
39695;DHT22;25367;-35.352;149.036;2023-02-19T07:44:34;28.80;46.80
39695;DHT22;25367;-35.352;149.036;2023-02-19T07:47:03;28.90;46.90
39695;DHT22;25367;-35.352;149.036;2023-02-19T07:49:33;28.90;46.90
39695;DHT22;25367;-35.352;149.036;2023-02-19T07:52:02;28.80;46.80
39695;DHT22;25367;-35.352;149.036;2023-02-19T07:54:32;28.90;46.90
39695;DHT22;25367;-35.352;149.036;2023-02-19T07:57:03;28.90;46.90
39695;DHT22;25367;-35.352;149.036;2023-02-19T07:59:33;29.00;47.00
39695;DHT22;25367;-35.352;149.036;2023-02-19T08:02:03;29.00;47.00
39695;DHT22;25367;-35.352;149.036;2023-02-19T08:04:32;29.00;47.00
39695;DHT22;25367;-35.352;149.036;2023-02-19T08:07:02;28.90;47.00
39695;DHT22;25367;-35.352;149.036;2023-02-19T08:09:32;29.00;47.10
39695;DHT22;25367;-35.352;149.036;2023-02-19T08:12:05;29.00;47.10
39695;DHT22;25367;-35.352;149.036;2023-02-19T08:14:35;29.00;47.10
39695;DHT22;25367;-35.352;149.036;2023-02-19T08:17:04;29.00;47.10
39695;DHT22;25367;-35.352;149.036;2023-02-19T08:19:33;29.00;47.10
39695;DHT22;25367;-35.352;149.036;2023-02-19T08:22:03;29.10;47.20
39695;DHT22;25367;-35.352;149.036;2023-02-19T08:24:32;29.10;47.20
39695;DHT22;25367;-35.352;149.036;2023-02-19T08:27:05;29.10;47.20
39695;DHT22;25367;-35.352;149.036;2023-02-19T08:29:35;29.10;47.20
39695;DHT22;25367;-35.352;149.036;2023-02-19T08:32:05;29.10;47.30
39695;DHT22;25367;-35.352;149.036;2023-02-19T08:34:34;29.10;47.20
39695;DHT22;25367;-35.352;149.036;2023-02-19T08:37:04;29.10;47.20
39695;DHT22;25367;-35.352;149.036;2023-02-19T08:39:33;29.10;47.20
39695;DHT22;25367;-35.352;149.036;2023-02-19T08:42:05;29.20;47.30
39695;DHT22;25367;-35.352;149.036;2023-02-19T08:44:34;29.10;47.30
39695;DHT22;25367;-35.352;149.036;2023-02-19T08:47:04;29.20;47.30
39695;DHT22;25367;-35.352;149.036;2023-02-19T08:49:34;29.20;47.30
39695;DHT22;25367;-35.352;149.036;2023-02-19T08:52:03;29.10;47.30
39695;DHT22;25367;-35.352;149.036;2023-02-19T08:54:33;29.20;47.40
39695;DHT22;25367;-35.352;149.036;2023-02-19T08:57:04;29.20;47.40
39695;DHT22;25367;-35.352;149.036;2023-02-19T08:59:35;29.10;47.20
39695;DHT22;25367;-35.352;149.036;2023-02-19T09:02:05;29.20;47.30
39695;DHT22;25367;-35.352;149.036;2023-02-19T09:04:34;29.20;47.40
39695;DHT22;25367;-35.352;149.036;2023-02-19T09:07:03;29.20;47.40
39695;DHT22;25367;-35.352;149.036;2023-02-19T09:09:35;29.20;47.30
39695;DHT22;25367;-35.352;149.036;2023-02-19T09:12:08;29.20;47.40
39695;DHT22;25367;-35.352;149.036;2023-02-19T09:14:38;29.20;47.30
39695;DHT22;25367;-35.352;149.036;2023-02-19T09:17:08;29.20;47.40
39695;DHT22;25367;-35.352;149.036;2023-02-19T09:19:38;29.20;47.40
39695;DHT22;25367;-35.352;149.036;2023-02-19T09:22:07;29.20;47.40
39695;DHT22;25367;-35.352;149.036;2023-02-19T09:24:37;29.20;47.30
39695;DHT22;25367;-35.352;149.036;2023-02-19T09:27:08;29.20;47.30
39695;DHT22;25367;-35.352;149.036;2023-02-19T09:29:42;29.20;47.30
39695;DHT22;25367;-35.352;149.036;2023-02-19T09:32:12;29.20;47.40
39695;DHT22;25367;-35.352;149.036;2023-02-19T09:34:42;29.20;47.30
39695;DHT22;25367;-35.352;149.036;2023-02-19T09:37:11;29.20;47.40
39695;DHT22;25367;-35.352;149.036;2023-02-19T09:39:40;29.20;47.40
39695;DHT22;25367;-35.352;149.036;2023-02-19T09:42:16;29.20;47.40
39695;DHT22;25367;-35.352;149.036;2023-02-19T09:44:48;29.20;47.40
39695;DHT22;25367;-35.352;149.036;2023-02-19T09:47:20;29.20;47.40
39695;DHT22;25367;-35.352;149.036;2023-02-19T09:49:50;29.20;47.40
39695;DHT22;25367;-35.352;149.036;2023-02-19T09:52:27;29.20;47.40
39695;DHT22;25367;-35.352;149.036;2023-02-19T09:55:00;29.20;47.40
39695;DHT22;25367;-35.352;149.036;2023-02-19T09:57:35;29.20;47.40
39695;DHT22;25367;-35.352;149.036;2023-02-19T10:00:11;29.20;47.50
39695;DHT22;25367;-35.352;149.036;2023-02-19T10:02:42;29.20;47.40
39695;DHT22;25367;-35.352;149.036;2023-02-19T10:05:12;29.20;47.50
39695;DHT22;25367;-35.352;149.036;2023-02-19T10:07:44;29.20;47.50
39695;DHT22;25367;-35.352;149.036;2023-02-19T10:10:27;29.20;47.50
39695;DHT22;25367;-35.352;149.036;2023-02-19T10:13:10;29.20;47.40
39695;DHT22;25367;-35.352;149.036;2023-02-19T10:15:43;29.20;47.50
39695;DHT22;25367;-35.352;149.036;2023-02-19T10:18:17;29.20;47.60
39695;DHT22;25367;-35.352;149.036;2023-02-19T10:20:47;29.20;47.60
39695;DHT22;25367;-35.352;149.036;2023-02-19T10:23:18;29.20;47.60
39695;DHT22;25367;-35.352;149.036;2023-02-19T10:25:48;29.20;47.60
39695;DHT22;25367;-35.352;149.036;2023-02-19T10:28:23;29.20;47.60
39695;DHT22;25367;-35.352;149.036;2023-02-19T10:30:55;29.20;47.60
39695;DHT22;25367;-35.352;149.036;2023-02-19T10:33:25;29.20;47.60
39695;DHT22;25367;-35.352;149.036;2023-02-19T10:35:56;29.20;48.20
39695;DHT22;25367;-35.352;149.036;2023-02-19T10:38:29;29.20;47.60
39695;DHT22;25367;-35.352;149.036;2023-02-19T10:41:04;29.20;47.60
39695;DHT22;25367;-35.352;149.036;2023-02-19T10:43:38;29.20;47.60
39695;DHT22;25367;-35.352;149.036;2023-02-19T10:46:15;29.20;47.60
39695;DHT22;25367;-35.352;149.036;2023-02-19T10:48:49;29.20;47.60
39695;DHT22;25367;-35.352;149.036;2023-02-19T10:51:20;29.20;47.70
39695;DHT22;25367;-35.352;149.036;2023-02-19T10:54:01;29.20;47.70
39695;DHT22;25367;-35.352;149.036;2023-02-19T10:56:32;29.20;47.70
39695;DHT22;25367;-35.352;149.036;2023-02-19T10:59:26;29.10;47.60
39695;DHT22;25367;-35.352;149.036;2023-02-19T11:01:56;29.20;47.60
39695;DHT22;25367;-35.352;149.036;2023-02-19T11:04:28;29.10;47.70
39695;DHT22;25367;-35.352;149.036;2023-02-19T11:06:59;29.20;47.70
39695;DHT22;25367;-35.352;149.036;2023-02-19T11:09:39;29.20;47.90
39695;DHT22;25367;-35.352;149.036;2023-02-19T11:12:11;29.20;47.90
39695;DHT22;25367;-35.352;149.036;2023-02-19T11:14:45;29.20;48.00
39695;DHT22;25367;-35.352;149.036;2023-02-19T11:17:23;29.20;47.90
39695;DHT22;25367;-35.352;149.036;2023-02-19T11:19:53;29.20;47.90
39695;DHT22;25367;-35.352;149.036;2023-02-19T11:22:31;29.20;47.90
39695;DHT22;25367;-35.352;149.036;2023-02-19T11:25:05;29.20;47.90
39695;DHT22;25367;-35.352;149.036;2023-02-19T11:27:35;29.20;48.00
39695;DHT22;25367;-35.352;149.036;2023-02-19T11:30:38;29.10;48.00
39695;DHT22;25367;-35.352;149.036;2023-02-19T11:33:21;29.20;47.90
39695;DHT22;25367;-35.352;149.036;2023-02-19T11:35:54;29.20;48.00
39695;DHT22;25367;-35.352;149.036;2023-02-19T11:38:27;29.10;48.10
39695;DHT22;25367;-35.352;149.036;2023-02-19T11:41:02;29.10;48.10
39695;DHT22;25367;-35.352;149.036;2023-02-19T11:43:49;29.20;48.10
39695;DHT22;25367;-35.352;149.036;2023-02-19T11:46:30;29.10;48.10
39695;DHT22;25367;-35.352;149.036;2023-02-19T11:49:17;29.10;48.10
39695;DHT22;25367;-35.352;149.036;2023-02-19T11:52:05;29.10;48.10
39695;DHT22;25367;-35.352;149.036;2023-02-19T11:54:46;29.10;48.10
39695;DHT22;25367;-35.352;149.036;2023-02-19T11:57:26;29.10;48.20
39695;DHT22;25367;-35.352;149.036;2023-02-19T12:00:12;29.10;48.30
39695;DHT22;25367;-35.352;149.036;2023-02-19T12:06:06;29.10;48.20
39695;DHT22;25367;-35.352;149.036;2023-02-19T12:08:53;29.10;48.30
39695;DHT22;25367;-35.352;149.036;2023-02-19T12:11:38;29.10;48.30
39695;DHT22;25367;-35.352;149.036;2023-02-19T12:14:26;29.10;48.30
39695;DHT22;25367;-35.352;149.036;2023-02-19T12:17:06;29.10;48.30
39695;DHT22;25367;-35.352;149.036;2023-02-19T12:20:00;29.10;48.40
39695;DHT22;25367;-35.352;149.036;2023-02-19T12:22:41;29.10;48.30
39695;DHT22;25367;-35.352;149.036;2023-02-19T12:25:28;29.10;48.50
39695;DHT22;25367;-35.352;149.036;2023-02-19T12:28:19;29.10;48.40
39695;DHT22;25367;-35.352;149.036;2023-02-19T12:37:03;29.10;48.60
39695;DHT22;25367;-35.352;149.036;2023-02-19T12:39:43;29.00;48.50
39695;DHT22;25367;-35.352;149.036;2023-02-19T12:42:37;29.10;48.60
39695;DHT22;25367;-35.352;149.036;2023-02-19T12:45:15;29.10;48.40
39695;DHT22;25367;-35.352;149.036;2023-02-19T12:47:50;29.00;48.60
39695;DHT22;25367;-35.352;149.036;2023-02-19T12:50:24;29.00;48.60
39695;DHT22;25367;-35.352;149.036;2023-02-19T12:53:00;29.00;48.70
39695;DHT22;25367;-35.352;149.036;2023-02-19T12:55:34;29.10;48.70
39695;DHT22;25367;-35.352;149.036;2023-02-19T12:58:10;29.00;48.70
39695;DHT22;25367;-35.352;149.036;2023-02-19T13:00:43;29.00;48.70
39695;DHT22;25367;-35.352;149.036;2023-02-19T13:03:15;29.00;48.70
39695;DHT22;25367;-35.352;149.036;2023-02-19T13:05:51;29.00;48.70
39695;DHT22;25367;-35.352;149.036;2023-02-19T13:08:27;29.00;48.70
39695;DHT22;25367;-35.352;149.036;2023-02-19T13:11:00;29.00;48.70
39695;DHT22;25367;-35.352;149.036;2023-02-19T13:13:34;29.00;48.80
39695;DHT22;25367;-35.352;149.036;2023-02-19T13:16:08;29.00;48.80
39695;DHT22;25367;-35.352;149.036;2023-02-19T13:18:42;29.00;48.90
39695;DHT22;25367;-35.352;149.036;2023-02-19T13:21:14;29.00;48.80
39695;DHT22;25367;-35.352;149.036;2023-02-19T13:23:48;29.00;48.90
39695;DHT22;25367;-35.352;149.036;2023-02-19T13:26:37;29.00;48.90
39695;DHT22;25367;-35.352;149.036;2023-02-19T13:29:23;29.00;48.80
39695;DHT22;25367;-35.352;149.036;2023-02-19T13:32:33;29.00;48.90
39695;DHT22;25367;-35.352;149.036;2023-02-19T13:35:21;29.00;48.70
39695;DHT22;25367;-35.352;149.036;2023-02-19T13:37:52;28.90;48.80
39695;DHT22;25367;-35.352;149.036;2023-02-19T13:40:29;28.90;49.00
39695;DHT22;25367;-35.352;149.036;2023-02-19T13:43:00;28.90;48.90
39695;DHT22;25367;-35.352;149.036;2023-02-19T13:45:33;28.90;49.00
39695;DHT22;25367;-35.352;149.036;2023-02-19T13:48:23;28.90;48.90
39695;DHT22;25367;-35.352;149.036;2023-02-19T13:54:00;28.90;48.70
39695;DHT22;25367;-35.352;149.036;2023-02-19T13:56:42;28.90;49.10
39695;DHT22;25367;-35.352;149.036;2023-02-19T13:59:26;28.90;48.80
39695;DHT22;25367;-35.352;149.036;2023-02-19T14:02:11;28.90;48.90
39695;DHT22;25367;-35.352;149.036;2023-02-19T14:04:47;28.90;49.00
39695;DHT22;25367;-35.352;149.036;2023-02-19T14:07:36;28.90;49.10
39695;DHT22;25367;-35.352;149.036;2023-02-19T14:10:10;28.90;48.90
39695;DHT22;25367;-35.352;149.036;2023-02-19T14:12:43;28.90;49.10
39695;DHT22;25367;-35.352;149.036;2023-02-19T14:15:40;28.80;49.00
39695;DHT22;25367;-35.352;149.036;2023-02-19T14:18:40;28.80;48.80
39695;DHT22;25367;-35.352;149.036;2023-02-19T14:21:17;28.80;48.90
39695;DHT22;25367;-35.352;149.036;2023-02-19T14:23:52;28.80;49.10
39695;DHT22;25367;-35.352;149.036;2023-02-19T14:26:25;28.80;49.20
39695;DHT22;25367;-35.352;149.036;2023-02-19T14:28:59;28.80;49.10
39695;DHT22;25367;-35.352;149.036;2023-02-19T14:31:30;28.80;49.10
39695;DHT22;25367;-35.352;149.036;2023-02-19T14:34:02;28.80;49.20
39695;DHT22;25367;-35.352;149.036;2023-02-19T14:36:36;28.80;49.20
39695;DHT22;25367;-35.352;149.036;2023-02-19T14:39:12;28.80;49.20
39695;DHT22;25367;-35.352;149.036;2023-02-19T14:41:46;28.80;49.10
39695;DHT22;25367;-35.352;149.036;2023-02-19T14:44:22;28.80;49.20
39695;DHT22;25367;-35.352;149.036;2023-02-19T14:46:56;28.80;49.20
39695;DHT22;25367;-35.352;149.036;2023-02-19T14:49:31;28.80;49.20
39695;DHT22;25367;-35.352;149.036;2023-02-19T14:52:04;28.70;49.10
39695;DHT22;25367;-35.352;149.036;2023-02-19T14:54:39;28.80;49.20
39695;DHT22;25367;-35.352;149.036;2023-02-19T14:57:14;28.80;49.20
39695;DHT22;25367;-35.352;149.036;2023-02-19T14:59:58;28.80;49.20
39695;DHT22;25367;-35.352;149.036;2023-02-19T15:02:28;28.80;49.10
39695;DHT22;25367;-35.352;149.036;2023-02-19T15:04:59;28.70;49.20
39695;DHT22;25367;-35.352;149.036;2023-02-19T15:07:30;28.70;49.30
39695;DHT22;25367;-35.352;149.036;2023-02-19T15:10:02;28.70;49.20
39695;DHT22;25367;-35.352;149.036;2023-02-19T15:12:34;28.70;49.30
39695;DHT22;25367;-35.352;149.036;2023-02-19T15:15:14;28.70;49.90
39695;DHT22;25367;-35.352;149.036;2023-02-19T15:17:44;28.70;49.20
39695;DHT22;25367;-35.352;149.036;2023-02-19T15:20:18;28.70;49.30
39695;DHT22;25367;-35.352;149.036;2023-02-19T15:22:48;28.70;49.20
39695;DHT22;25367;-35.352;149.036;2023-02-19T15:25:19;28.60;49.20
39695;DHT22;25367;-35.352;149.036;2023-02-19T15:27:49;28.70;49.30
39695;DHT22;25367;-35.352;149.036;2023-02-19T15:30:22;28.70;49.30
39695;DHT22;25367;-35.352;149.036;2023-02-19T15:32:53;28.60;49.20
39695;DHT22;25367;-35.352;149.036;2023-02-19T15:35:24;28.70;49.30
39695;DHT22;25367;-35.352;149.036;2023-02-19T15:37:55;28.70;49.30
39695;DHT22;25367;-35.352;149.036;2023-02-19T15:40:28;28.70;49.30
39695;DHT22;25367;-35.352;149.036;2023-02-19T15:42:58;28.60;49.30